createdAt,value
2022-10-18T00:00:22.790Z,22.10
2022-10-18T00:02:50.407Z,17.87
2022-10-18T00:05:17.940Z,17.65
2022-10-18T00:07:45.257Z,18.10
2022-10-18T00:10:12.969Z,14.90
2022-10-18T00:12:40.582Z,16.20
2022-10-18T00:15:08.666Z,16.70
2022-10-18T00:17:37.460Z,17.60
2022-10-18T00:20:06.645Z,17.62
2022-10-18T00:22:35.348Z,18.50
2022-10-18T00:25:03.079Z,20.35
2022-10-18T00:27:30.906Z,18.87
2022-10-18T00:29:58.283Z,15.05
2022-10-18T00:32:26.125Z,16.77
2022-10-18T00:34:53.576Z,16.40
2022-10-18T00:37:20.921Z,19.60
2022-10-18T00:39:48.609Z,18.55
2022-10-18T00:42:21.366Z,17.75
2022-10-18T00:44:48.852Z,20.75
2022-10-18T00:47:18.017Z,21.00
2022-10-18T00:49:49.349Z,20.12
2022-10-18T00:52:28.960Z,20.77
2022-10-18T00:54:57.095Z,19.25
2022-10-18T00:57:25.465Z,22.62
2022-10-18T00:59:53.459Z,21.00
2022-10-18T01:02:21.727Z,18.67
2022-10-18T01:04:49.484Z,21.10
2022-10-18T01:07:26.134Z,19.75
2022-10-18T01:09:59.675Z,22.48
2022-10-18T01:13:05.041Z,20.23
2022-10-18T01:15:51.204Z,17.45
2022-10-18T01:18:34.878Z,22.25
2022-10-18T01:21:26.903Z,21.00
2022-10-18T01:24:18.553Z,23.48
2022-10-18T01:26:51.890Z,20.75
2022-10-18T01:29:38.066Z,16.58
2022-10-18T01:32:12.794Z,18.40
2022-10-18T01:34:42.425Z,17.55
2022-10-18T01:37:13.688Z,16.60
2022-10-18T01:39:44.497Z,18.00
2022-10-18T01:42:15.105Z,17.08
2022-10-18T01:44:44.258Z,17.08
2022-10-18T01:47:12.545Z,13.90
2022-10-18T01:49:39.999Z,15.30
2022-10-18T01:54:45.090Z,18.02
2022-10-18T01:57:19.838Z,18.45
2022-10-18T01:59:58.161Z,17.15
2022-10-18T02:02:57.771Z,16.85
2022-10-18T02:05:48.459Z,16.15
2022-10-18T02:08:39.208Z,18.65
2022-10-18T02:11:07.393Z,16.15
2022-10-18T02:13:40.746Z,16.42
2022-10-18T02:16:12.277Z,18.95
2022-10-18T02:18:48.553Z,15.65
2022-10-18T02:21:18.457Z,16.40
2022-10-18T02:23:46.296Z,18.83
2022-10-18T02:26:14.904Z,17.62
2022-10-18T02:28:42.922Z,18.95
2022-10-18T02:31:22.715Z,18.10
2022-10-18T02:33:57.524Z,22.55
2022-10-18T02:36:32.036Z,20.10
2022-10-18T02:39:04.276Z,15.45
2022-10-18T02:41:31.829Z,17.55
2022-10-18T02:43:59.528Z,17.08
2022-10-18T02:48:59.382Z,16.45
2022-10-18T02:51:26.992Z,16.62
2022-10-18T02:53:54.342Z,16.02
2022-10-18T02:56:21.692Z,17.10
2022-10-18T02:58:49.291Z,19.35
2022-10-18T03:01:16.688Z,15.02
2022-10-18T03:03:44.073Z,17.40
2022-10-18T03:06:11.741Z,15.82
2022-10-18T03:08:39.171Z,17.35
2022-10-18T03:11:06.798Z,18.05
2022-10-18T03:13:34.630Z,18.20
2022-10-18T03:16:02.127Z,19.15
2022-10-18T03:18:29.495Z,16.05
2022-10-18T03:20:57.096Z,19.83
2022-10-18T03:23:24.447Z,17.27
2022-10-18T03:25:51.776Z,20.33
2022-10-18T03:28:19.352Z,20.42
2022-10-18T03:30:46.698Z,18.17
2022-10-18T03:33:14.087Z,21.27
2022-10-18T03:35:41.667Z,18.37
2022-10-18T03:38:09.052Z,17.77
2022-10-18T03:40:36.401Z,20.73
2022-10-18T03:43:03.999Z,18.87
2022-10-18T03:45:31.737Z,21.23
2022-10-18T03:47:59.205Z,20.90
2022-10-18T03:50:26.849Z,22.13
2022-10-18T03:52:55.458Z,21.67
2022-10-18T03:55:22.832Z,19.92
2022-10-18T03:57:50.446Z,21.27
2022-10-18T04:00:17.806Z,17.98
2022-10-18T04:02:45.406Z,19.02
2022-10-18T04:05:14.121Z,20.23
2022-10-18T04:07:41.488Z,19.90
2022-10-18T04:10:09.320Z,19.67
2022-10-18T04:12:36.715Z,22.42
2022-10-18T04:15:04.436Z,19.37
2022-10-18T04:17:32.291Z,20.75
2022-10-18T04:19:59.797Z,20.48
2022-10-18T04:22:27.319Z,22.35
2022-10-18T04:24:56.817Z,19.33
2022-10-18T04:27:24.519Z,26.70
2022-10-18T04:29:51.847Z,22.95
2022-10-18T04:32:19.456Z,25.77
2022-10-18T04:34:46.815Z,22.80
2022-10-18T04:37:14.235Z,24.27
2022-10-18T04:39:49.767Z,33.00
2022-10-18T04:42:20.295Z,28.38
2022-10-18T04:44:47.906Z,25.75
2022-10-18T04:47:16.063Z,24.75
2022-10-18T04:49:43.597Z,25.05
2022-10-18T04:52:11.517Z,22.42
2022-10-18T04:54:38.884Z,22.95
2022-10-18T04:57:06.253Z,27.48
2022-10-18T04:59:33.871Z,26.77
2022-10-18T05:02:01.353Z,20.25
2022-10-18T05:04:28.730Z,24.63
2022-10-18T05:06:56.364Z,22.95
2022-10-18T05:09:24.889Z,20.25
2022-10-18T05:11:52.321Z,20.88
2022-10-18T05:14:19.977Z,21.55
2022-10-18T05:16:47.479Z,20.50
2022-10-18T05:19:14.853Z,19.58
2022-10-18T05:21:42.479Z,22.42
2022-10-18T05:24:11.767Z,20.98
2022-10-18T05:26:39.213Z,20.33
2022-10-18T05:29:06.979Z,21.98
2022-10-18T05:31:34.445Z,21.60
2022-10-18T05:34:02.008Z,21.40
2022-10-18T05:36:29.650Z,21.80
2022-10-18T05:39:00.886Z,26.35
2022-10-18T05:41:31.927Z,23.87
2022-10-18T05:44:03.921Z,24.85
2022-10-18T05:46:31.914Z,24.30
2022-10-18T05:48:59.282Z,29.15
2022-10-18T05:51:26.605Z,28.62
2022-10-18T05:53:54.818Z,29.23
2022-10-18T05:56:22.163Z,22.48
2022-10-18T05:58:51.009Z,26.30
2022-10-18T06:01:18.878Z,23.12
2022-10-18T06:03:46.966Z,29.33
2022-10-18T06:06:14.663Z,25.73
2022-10-18T06:08:43.000Z,27.83
2022-10-18T06:11:16.511Z,27.60
2022-10-18T06:13:48.721Z,23.73
2022-10-18T06:16:18.966Z,24.63
2022-10-18T06:18:51.243Z,26.08
2022-10-18T06:21:20.173Z,26.30
2022-10-18T06:23:56.187Z,26.48
2022-10-18T06:26:24.083Z,26.30
2022-10-18T06:28:51.548Z,24.73
2022-10-18T06:31:19.220Z,25.58
2022-10-18T06:33:47.103Z,29.05
2022-10-18T06:36:19.506Z,27.45
2022-10-18T06:38:47.210Z,27.62
2022-10-18T06:41:14.945Z,25.90
2022-10-18T06:43:42.302Z,22.20
2022-10-18T06:46:09.991Z,25.12
2022-10-18T06:48:39.034Z,27.40
2022-10-18T06:51:07.562Z,27.52
2022-10-18T06:53:43.815Z,23.12
2022-10-18T06:56:16.033Z,22.98
2022-10-18T06:58:43.743Z,24.05
2022-10-18T07:01:16.169Z,32.00
2022-10-18T07:03:44.913Z,25.75
2022-10-18T07:06:13.667Z,23.20
2022-10-18T07:08:41.503Z,28.33
2022-10-18T07:11:14.664Z,34.95
2022-10-18T07:13:42.076Z,29.65
2022-10-18T07:16:17.390Z,29.15
2022-10-18T07:18:51.123Z,29.15
2022-10-18T07:21:21.364Z,26.83
2022-10-18T07:23:49.458Z,27.60
2022-10-18T07:26:29.938Z,28.48
2022-10-18T07:29:05.609Z,33.85
2022-10-18T07:31:33.476Z,29.30
2022-10-18T07:34:01.160Z,28.23
2022-10-18T07:36:28.522Z,30.67
2022-10-18T07:38:56.202Z,26.10
2022-10-18T07:41:23.890Z,25.73
2022-10-18T07:43:52.669Z,26.92
2022-10-18T07:46:21.631Z,26.52
2022-10-18T07:48:49.360Z,25.85
2022-10-18T07:51:18.168Z,27.23
2022-10-18T07:53:45.647Z,23.50
2022-10-18T07:56:20.938Z,24.65
2022-10-18T07:58:53.542Z,23.38
2022-10-18T08:01:22.586Z,27.48
2022-10-18T08:03:50.866Z,23.77
2022-10-18T08:06:19.555Z,28.75
2022-10-18T08:08:48.100Z,24.20
2022-10-18T08:11:18.922Z,24.33
2022-10-18T08:13:46.342Z,23.75
2022-10-18T08:16:20.385Z,34.88
2022-10-18T08:18:48.239Z,22.05
2022-10-18T08:21:16.729Z,24.58
2022-10-18T08:23:44.605Z,22.70
2022-10-18T08:26:14.955Z,24.60
2022-10-18T08:28:49.063Z,22.23
2022-10-18T08:31:21.941Z,21.00
2022-10-18T08:33:49.301Z,18.77
2022-10-18T08:36:19.379Z,18.85
2022-10-18T08:38:47.092Z,19.67
2022-10-18T08:41:26.745Z,15.05
2022-10-18T08:44:07.191Z,16.52
2022-10-18T08:46:36.517Z,16.40
2022-10-18T08:49:04.504Z,13.50
2022-10-18T08:51:38.048Z,14.40
2022-10-18T08:54:17.110Z,14.20
2022-10-18T08:56:47.820Z,14.38
2022-10-18T08:59:15.590Z,13.73
2022-10-18T09:02:11.468Z,15.38
2022-10-18T09:04:56.608Z,13.30
2022-10-18T09:07:59.370Z,13.90
2022-10-18T09:13:55.413Z,14.98
2022-10-18T09:17:00.277Z,12.20
2022-10-18T09:19:42.459Z,12.63
2022-10-18T09:22:15.237Z,14.07
2022-10-18T09:25:16.329Z,14.00
2022-10-18T09:28:19.087Z,11.60
2022-10-18T09:31:08.071Z,11.52
2022-10-18T09:33:54.399Z,8.00
2022-10-18T09:36:30.555Z,10.40
2022-10-18T09:39:01.697Z,9.60
2022-10-18T09:41:52.521Z,9.43
2022-10-18T09:44:40.054Z,9.23
2022-10-18T09:47:16.836Z,12.02
2022-10-18T09:50:00.316Z,9.32
2022-10-18T09:52:34.433Z,12.93
2022-10-18T09:55:18.985Z,11.02
2022-10-18T09:57:50.506Z,10.80
2022-10-18T10:00:26.605Z,11.00
2022-10-18T10:02:54.483Z,9.80
2022-10-18T10:05:21.976Z,13.13
2022-10-18T10:07:49.395Z,10.95
2022-10-18T10:10:21.684Z,10.98
2022-10-18T10:13:04.165Z,9.85
2022-10-18T10:15:36.956Z,12.00
2022-10-18T10:18:21.341Z,13.00
2022-10-18T10:20:52.597Z,12.35
2022-10-18T10:23:45.085Z,9.25
2022-10-18T10:26:25.737Z,13.00
2022-10-18T10:28:53.148Z,8.98
2022-10-18T10:31:27.893Z,9.20
2022-10-18T10:34:06.718Z,14.18
2022-10-18T10:36:35.183Z,8.98
2022-10-18T10:39:22.450Z,12.07
2022-10-18T10:41:53.732Z,12.13
2022-10-18T10:44:23.498Z,11.73
2022-10-18T10:46:51.888Z,8.82
2022-10-18T10:52:27.035Z,11.60
2022-10-18T10:55:05.857Z,10.20
2022-10-18T10:57:38.896Z,10.32
2022-10-18T11:00:06.629Z,11.27
2022-10-18T11:02:36.173Z,12.27
2022-10-18T11:05:23.944Z,10.70
2022-10-18T11:07:53.560Z,9.68
2022-10-18T11:10:24.714Z,9.55
2022-10-18T11:13:03.161Z,7.65
2022-10-18T11:15:45.304Z,7.95
2022-10-18T11:18:30.333Z,10.18
2022-10-18T11:21:08.192Z,6.60
2022-10-18T11:23:38.102Z,7.05
2022-10-18T11:26:11.710Z,8.35
2022-10-18T11:28:47.917Z,11.05
2022-10-18T11:31:51.173Z,6.62
2022-10-18T11:34:21.384Z,7.55
2022-10-18T11:37:33.397Z,7.28
2022-10-18T11:40:03.473Z,8.82
2022-10-18T11:42:59.519Z,8.05
2022-10-18T11:45:38.728Z,7.93
2022-10-18T11:48:18.281Z,6.18
2022-10-18T11:50:54.133Z,8.55
2022-10-18T11:53:26.792Z,8.80
2022-10-18T11:56:14.808Z,10.50
2022-10-18T11:59:11.216Z,7.50
2022-10-18T12:01:43.955Z,10.38
2022-10-18T12:04:20.680Z,8.05
2022-10-18T12:06:51.076Z,9.88
2022-10-18T12:09:27.714Z,9.20
2022-10-18T12:12:02.039Z,10.27
2022-10-18T12:14:33.568Z,14.65
2022-10-18T12:19:55.804Z,13.13
2022-10-18T12:22:33.484Z,12.43
2022-10-18T12:25:01.990Z,9.55
2022-10-18T12:27:41.211Z,8.80
2022-10-18T12:30:22.305Z,11.30
2022-10-18T12:33:03.364Z,9.18
2022-10-18T12:36:00.412Z,9.73
2022-10-18T12:38:31.303Z,8.57
2022-10-18T12:40:59.426Z,10.07
2022-10-18T12:43:36.526Z,8.82
2022-10-18T12:46:13.502Z,9.57
2022-10-18T12:48:45.309Z,10.80
2022-10-18T12:51:21.219Z,9.73
2022-10-18T12:54:09.734Z,9.75
2022-10-18T12:56:44.295Z,8.63
2022-10-18T13:01:51.602Z,7.80
2022-10-18T13:04:28.031Z,6.65
2022-10-18T13:06:59.469Z,10.00
2022-10-18T13:09:29.372Z,7.95
2022-10-18T13:12:10.283Z,6.10
2022-10-18T13:15:26.289Z,7.62
2022-10-18T13:18:04.747Z,5.05
2022-10-18T13:20:36.769Z,6.82
2022-10-18T13:23:34.040Z,8.52
2022-10-18T13:26:23.335Z,7.12
2022-10-18T13:28:53.362Z,9.07
2022-10-18T13:31:29.529Z,7.55
2022-10-18T13:34:18.659Z,8.45
2022-10-18T13:36:59.463Z,8.00
2022-10-18T13:39:27.655Z,6.62
2022-10-18T13:41:58.130Z,6.87
2022-10-18T13:44:32.579Z,10.18
2022-10-18T13:47:00.142Z,7.07
2022-10-18T13:49:39.557Z,7.62
2022-10-18T13:52:25.691Z,7.28
2022-10-18T13:55:21.137Z,8.65
2022-10-18T13:57:57.821Z,11.23
2022-10-18T14:00:58.452Z,8.35
2022-10-18T14:03:57.586Z,8.60
2022-10-18T14:06:28.632Z,11.60
2022-10-18T14:09:06.249Z,8.57
2022-10-18T14:11:46.084Z,7.35
2022-10-18T14:14:36.702Z,11.55
2022-10-18T14:17:18.051Z,12.90
2022-10-18T14:20:14.415Z,9.02
2022-10-18T14:22:53.690Z,7.78
2022-10-18T14:25:27.150Z,9.80
2022-10-18T14:28:14.661Z,10.65
2022-10-18T14:31:03.355Z,10.18
2022-10-18T14:33:34.774Z,7.65
2022-10-18T14:36:12.928Z,9.40
2022-10-18T14:39:00.830Z,7.30
2022-10-18T14:41:35.018Z,11.12
2022-10-18T14:44:14.656Z,8.07
2022-10-18T14:46:51.088Z,7.90
2022-10-18T14:49:20.074Z,8.45
2022-10-18T14:51:51.418Z,10.93
2022-10-18T14:54:24.082Z,9.07
2022-10-18T14:56:54.060Z,10.60
2022-10-18T14:59:26.844Z,12.27
2022-10-18T15:02:02.559Z,12.90
2022-10-18T15:04:33.076Z,8.63
2022-10-18T15:07:03.783Z,7.10
2022-10-18T15:09:34.585Z,11.27
2022-10-18T15:12:06.682Z,9.95
2022-10-18T15:14:34.970Z,9.93
2022-10-18T15:17:14.365Z,10.55
2022-10-18T15:19:54.537Z,9.73
2022-10-18T15:22:31.744Z,12.07
2022-10-18T15:25:06.074Z,10.48
2022-10-18T15:27:36.881Z,16.92
2022-10-18T15:30:37.341Z,11.18
2022-10-18T15:33:10.693Z,21.48
2022-10-18T15:35:39.198Z,28.60
2022-10-18T15:38:15.789Z,26.30
2022-10-18T15:40:43.790Z,49.35
2022-10-18T15:43:23.573Z,49.38
2022-10-18T15:45:53.271Z,40.88
2022-10-18T15:48:24.406Z,21.02
2022-10-18T15:51:06.223Z,21.70
2022-10-18T15:53:35.609Z,20.00
2022-10-18T15:56:10.934Z,19.15
2022-10-18T15:58:46.395Z,24.05
2022-10-18T16:01:22.060Z,17.95
2022-10-18T16:03:50.717Z,22.10
2022-10-18T16:06:18.594Z,18.98
2022-10-18T16:08:51.119Z,18.77
2022-10-18T16:11:24.189Z,18.40
2022-10-18T16:13:55.138Z,22.10
2022-10-18T16:16:27.472Z,26.02
2022-10-18T16:18:56.095Z,24.85
2022-10-18T16:21:29.974Z,23.98
2022-10-18T16:23:57.878Z,18.25
2022-10-18T16:26:26.185Z,30.55
2022-10-18T16:28:54.431Z,25.98
2022-10-18T16:31:24.347Z,27.33
2022-10-18T16:33:52.582Z,31.52
2022-10-18T16:36:22.594Z,27.55
2022-10-18T16:38:50.590Z,24.37
2022-10-18T16:41:18.446Z,23.50
2022-10-18T16:43:47.020Z,17.62
2022-10-18T16:46:17.572Z,19.92
2022-10-18T16:48:45.538Z,15.32
2022-10-18T16:51:13.014Z,21.50
2022-10-18T16:53:41.373Z,24.27
2022-10-18T16:56:30.579Z,62.33
2022-10-18T16:58:58.990Z,33.33
2022-10-18T17:01:26.797Z,36.63
2022-10-18T17:03:55.234Z,28.48
2022-10-18T17:06:29.748Z,33.15
2022-10-18T17:08:57.807Z,39.78
2022-10-18T17:11:27.517Z,41.60
2022-10-18T17:13:55.890Z,37.75
2022-10-18T17:16:32.396Z,20.45
2022-10-18T17:19:03.091Z,23.87
2022-10-18T17:21:31.968Z,22.17
2022-10-18T17:24:01.642Z,23.55
2022-10-18T17:26:30.168Z,20.83
2022-10-18T17:29:00.965Z,21.48
2022-10-18T17:31:30.335Z,22.87
2022-10-18T17:34:00.236Z,31.20
2022-10-18T17:36:28.140Z,34.10
2022-10-18T17:38:56.621Z,50.65
2022-10-18T17:41:24.270Z,41.67
2022-10-18T17:43:52.061Z,36.65
2022-10-18T17:46:20.488Z,31.87
2022-10-18T17:48:47.996Z,28.30
2022-10-18T17:51:17.401Z,30.27
2022-10-18T17:53:45.416Z,23.67
2022-10-18T17:56:13.722Z,28.12
2022-10-18T17:58:43.605Z,28.67
2022-10-18T18:01:17.652Z,27.60
2022-10-18T18:03:45.432Z,25.05
2022-10-18T18:06:31.120Z,28.48
2022-10-18T18:09:05.379Z,23.12
2022-10-18T18:11:33.972Z,20.40
2022-10-18T18:14:02.264Z,21.50
2022-10-18T18:16:30.599Z,19.45
2022-10-18T18:18:59.191Z,17.95
2022-10-18T18:21:27.828Z,20.15
2022-10-18T18:23:56.125Z,26.02
2022-10-18T18:26:24.110Z,22.40
2022-10-18T18:28:52.520Z,22.83
2022-10-18T18:31:24.266Z,23.52
2022-10-18T18:33:53.811Z,26.52
2022-10-18T18:36:22.549Z,24.65
2022-10-18T18:38:55.445Z,24.30
2022-10-18T18:41:27.060Z,22.10
2022-10-18T18:43:58.049Z,23.05
2022-10-18T18:46:28.548Z,19.77
2022-10-18T18:49:02.181Z,24.98
2022-10-18T18:51:30.404Z,28.17
2022-10-18T18:53:58.335Z,27.92
2022-10-18T18:56:27.601Z,23.20
2022-10-18T18:58:57.116Z,26.35
2022-10-18T19:01:27.269Z,24.83
2022-10-18T19:03:56.530Z,16.95
2022-10-18T19:06:39.118Z,18.08
2022-10-18T19:09:22.849Z,21.12
2022-10-18T19:11:56.348Z,20.33
2022-10-18T19:14:25.949Z,22.73
2022-10-18T19:16:56.826Z,21.27
2022-10-18T19:19:26.789Z,23.08
2022-10-18T19:21:56.563Z,22.35
2022-10-18T19:24:25.414Z,20.67
2022-10-18T19:26:58.801Z,27.98
2022-10-18T19:29:32.014Z,31.45
2022-10-18T19:32:03.111Z,21.70
2022-10-18T19:34:32.929Z,23.40
2022-10-18T19:37:01.436Z,20.60
2022-10-18T19:39:34.359Z,20.73
2022-10-18T19:42:06.572Z,19.17
2022-10-18T19:44:37.541Z,20.40
2022-10-18T19:47:06.742Z,22.08
2022-10-18T19:49:34.861Z,21.27
2022-10-18T19:52:02.683Z,20.48
2022-10-18T19:54:30.785Z,21.95
2022-10-18T19:56:58.465Z,22.00
2022-10-18T19:59:26.421Z,21.30
2022-10-18T20:01:54.580Z,18.95
2022-10-18T20:04:22.512Z,17.83
2022-10-18T20:06:50.317Z,19.85
2022-10-18T20:09:20.489Z,18.70
2022-10-18T20:11:48.867Z,18.37
2022-10-18T20:14:16.297Z,23.98
2022-10-18T20:16:43.661Z,19.85
2022-10-18T20:19:11.727Z,22.70
2022-10-18T20:21:39.969Z,17.55
2022-10-18T20:24:08.410Z,22.27
2022-10-18T20:26:36.125Z,18.27
2022-10-18T20:29:04.424Z,16.75
2022-10-18T20:31:35.606Z,20.85
2022-10-18T20:34:05.273Z,19.17
2022-10-18T20:36:33.233Z,17.58
2022-10-18T20:39:00.870Z,15.73
2022-10-18T20:41:30.740Z,21.25
2022-10-18T20:44:03.947Z,17.15
2022-10-18T20:46:33.519Z,24.48
2022-10-18T20:49:01.247Z,20.52
2022-10-18T20:51:28.866Z,15.32
2022-10-18T20:53:56.519Z,20.85
2022-10-18T20:56:26.705Z,23.50
2022-10-18T20:58:56.340Z,24.83
2022-10-18T21:01:29.147Z,23.42
2022-10-18T21:03:58.097Z,18.77
2022-10-18T21:06:30.910Z,20.48
2022-10-18T21:09:00.560Z,22.00
2022-10-18T21:11:29.982Z,17.62
2022-10-18T21:14:00.141Z,21.50
2022-10-18T21:16:28.465Z,18.83
2022-10-18T21:18:55.835Z,15.25
2022-10-18T21:21:24.779Z,19.23
2022-10-18T21:23:52.742Z,16.37
2022-10-18T21:26:27.114Z,15.13
2022-10-18T21:28:58.592Z,15.80
2022-10-18T21:31:28.194Z,14.07
2022-10-18T21:33:57.540Z,16.90
2022-10-18T21:36:25.914Z,15.98
2022-10-18T21:38:53.798Z,16.77
2022-10-18T21:41:21.978Z,19.65
2022-10-18T21:43:51.902Z,15.30
2022-10-18T21:46:21.071Z,19.75
2022-10-18T21:48:53.439Z,18.62
2022-10-18T21:51:22.448Z,15.13
2022-10-18T21:53:52.574Z,20.17
2022-10-18T21:56:28.105Z,18.67
2022-10-18T21:58:56.281Z,16.70
2022-10-18T22:01:25.954Z,18.08
2022-10-18T22:03:55.074Z,16.12
2022-10-18T22:06:22.969Z,19.87
2022-10-18T22:08:53.099Z,13.73
2022-10-18T22:11:32.516Z,11.80
2022-10-18T22:14:00.399Z,14.25
2022-10-18T22:16:28.461Z,13.35
2022-10-18T22:19:00.780Z,13.18
2022-10-18T22:21:30.078Z,13.05
2022-10-18T22:23:58.060Z,13.02
2022-10-18T22:26:30.540Z,12.70
2022-10-18T22:29:01.132Z,14.68
2022-10-18T22:31:31.602Z,12.63
2022-10-18T22:34:03.112Z,12.80
2022-10-18T22:36:32.754Z,14.07
2022-10-18T22:39:00.937Z,16.42
2022-10-18T22:41:28.444Z,15.73
2022-10-18T22:43:58.409Z,16.08
2022-10-18T22:46:28.729Z,14.43
2022-10-18T22:48:56.075Z,15.82
2022-10-18T22:51:23.591Z,13.98
2022-10-18T22:53:51.248Z,13.43
2022-10-18T22:56:20.877Z,12.65
2022-10-18T22:58:48.329Z,15.10
2022-10-18T23:01:23.209Z,13.35
2022-10-18T23:03:55.263Z,13.40
2022-10-18T23:06:30.361Z,10.68
2022-10-18T23:11:26.896Z,19.83
2022-10-18T23:13:54.388Z,11.93
2022-10-18T23:16:22.086Z,15.18
2022-10-18T23:18:51.668Z,13.80
2022-10-18T23:21:19.627Z,13.82
2022-10-18T23:23:47.342Z,16.90
2022-10-18T23:26:17.578Z,14.32
2022-10-18T23:28:47.036Z,15.00
2022-10-18T23:31:23.647Z,12.98
2022-10-18T23:33:53.314Z,11.73
2022-10-18T23:36:21.674Z,13.57
2022-10-18T23:38:49.302Z,12.55
2022-10-18T23:41:17.237Z,14.98
2022-10-18T23:43:45.166Z,11.93
2022-10-18T23:46:13.466Z,17.90
2022-10-18T23:48:40.838Z,12.02
2022-10-18T23:51:08.526Z,16.42
2022-10-18T23:53:36.542Z,15.25
2022-10-18T23:56:08.917Z,13.48
2022-10-18T23:58:37.342Z,17.17
